Time;durP1;ratioP1;P1;durP2;ratioP2;P2;SDS_P1;SDS_P2;PMS_P1;PMS_P2;Temp;Humidity;BMP_temperature;BMP_pressure;BME280_temperature;BME280_humidity;BME280_pressure;Samples;Min_cycle;Max_cycle;Signal;HPM_P1;HPM_P2
2021/11/20 00:00:50;;;;;;;;;;;;;;;10.89;100.00;101586.69;5093226;28;19977;-74
2021/11/20 00:03:16;;;;;;;;;;;;;;;10.89;100.00;101581.25;5092984;28;20000;-75
2021/11/20 00:05:44;;;;;;;;;;;;;;;10.88;100.00;101582.22;5092831;28;20034;-75
2021/11/20 00:08:11;;;;;;;;;;;;;;;10.87;100.00;101585.91;5092966;28;19961;-74
2021/11/20 00:10:39;;;;;;;;;;;;;;;10.88;100.00;101578.63;5092682;28;19974;-74
2021/11/20 00:13:08;;;;;;;;;;;;;;;10.88;100.00;101598.50;5072655;28;20418;-75
2021/11/20 00:15:35;;;;;;;;;;;;;;;10.87;100.00;101585.03;5072297;28;19935;-75
2021/11/20 00:18:02;;;;;;;;;;;;;;;10.87;100.00;101594.03;5072111;28;19925;-75
2021/11/20 00:20:30;;;;;;;;;;;;;;;10.89;100.00;101597.53;5072586;28;19966;-74
2021/11/20 00:22:57;;;;;;;;;;;;;;;10.88;100.00;101593.06;5072497;28;20025;-75
2021/11/20 00:25:27;;;;;;;;;;;;;;;10.87;100.00;101594.03;5072155;28;19974;-75
2021/11/20 00:27:54;;;;;;;;;;;;;;;10.84;100.00;101588.84;5054651;28;19955;-75
2021/11/20 00:30:23;;;;;;;;;;;;;;;10.82;100.00;101585.38;5072361;28;19935;-74
2021/11/20 00:32:51;;;;;;;;;;;;;;;10.84;100.00;101594.25;5071326;28;20022;-74
2021/11/20 00:35:21;;;;;;;;;;;;;;;10.83;100.00;101594.38;5070675;28;19935;-74
2021/11/20 00:37:47;;;;;;;;;;;;;;;10.81;100.00;101586.34;5070903;28;19987;-74
2021/11/20 00:40:15;;;;;;;;;;;;;;;10.83;100.00;101613.38;5072327;28;19956;-74
2021/11/20 00:42:42;;;;;;;;;;;;;;;10.83;100.00;101594.38;5071025;28;20357;-75
2021/11/20 00:45:09;;;;;;;;;;;;;;;10.82;100.00;101595.34;5071918;28;19963;-75
2021/11/20 00:47:35;;;;;;;;;;;;;;;10.81;100.00;101601.75;5054079;28;20008;-75
2021/11/20 00:50:02;;;;;;;;;;;;;;;10.81;100.00;101589.06;5071010;28;19935;-74
2021/11/20 00:52:29;;;;;;;;;;;;;;;10.82;100.00;101588.09;5071809;28;19943;-75
2021/11/20 00:54:56;;;;;;;;;;;;;;;10.79;100.00;101584.69;5070461;28;19935;-74
2021/11/20 00:57:22;;;;;;;;;;;;;;;10.78;100.00;101589.25;5070393;28;19969;-74
2021/11/20 00:59:50;;;;;;;;;;;;;;;10.80;100.00;101591.88;5070534;28;19987;-75
2021/11/20 01:02:18;;;;;;;;;;;;;;;10.80;100.00;101600.88;5071827;28;19935;-75
2021/11/20 01:04:44;;;;;;;;;;;;;;;10.79;100.00;101599.13;5070524;28;20025;-75
2021/11/20 01:07:11;;;;;;;;;;;;;;;10.78;100.00;101585.66;5070266;28;20336;-75
2021/11/20 01:09:42;;;;;;;;;;;;;;;10.79;100.00;101601.00;5069777;28;19935;-75
2021/11/20 01:12:10;;;;;;;;;;;;;;;10.78;100.00;101601.97;5086234;28;20459;-75
2021/11/20 01:14:38;;;;;;;;;;;;;;;10.76;100.00;101602.06;5074452;28;19931;-75
2021/11/20 01:17:06;;;;;;;;;;;;;;;10.75;100.00;101600.31;5073435;28;19937;-74
2021/11/20 01:19:33;;;;;;;;;;;;;;;10.72;100.00;101589.69;5073933;28;19928;-74
2021/11/20 01:22:07;;;;;;;;;;;;;;;10.73;100.00;101594.16;5091677;28;19931;-74
2021/11/20 01:24:49;;;;;;;;;;;;;;;10.73;100.00;101580.56;5073779;28;19959;-75
2021/11/20 01:27:20;;;;;;;;;;;;;;;10.71;100.00;101564.34;5073326;28;20010;-73
2021/11/20 01:29:59;;;;;;;;;;;;;;;10.70;100.00;101584.38;5073813;28;19979;-74
2021/11/20 01:32:25;;;;;;;;;;;;;;;10.71;100.00;101602.38;5073323;28;19928;-74
2021/11/20 01:34:53;;;;;;;;;;;;;;;10.69;100.00;101606.19;5073513;28;20438;-74
2021/11/20 01:37:20;;;;;;;;;;;;;;;10.70;100.00;101607.91;5073339;28;20270;-74
2021/11/20 01:39:49;;;;;;;;;;;;;;;10.69;100.00;101612.47;5090214;28;20365;-75
2021/11/20 01:42:31;;;;;;;;;;;;;;;10.69;100.00;101611.63;5073645;28;20018;-74
2021/11/20 01:45:08;;;;;;;;;;;;;;;10.68;100.00;101604.44;5073152;28;19931;-75
2021/11/20 01:47:42;;;;;;;;;;;;;;;10.70;100.00;101610.63;5073643;28;19930;-74
2021/11/20 01:50:10;;;;;;;;;;;;;;;10.67;100.00;101603.56;5072911;28;19963;-74
2021/11/20 01:52:53;;;;;;;;;;;;;;;10.68;100.00;101604.44;5090393;28;19931;-74
2021/11/20 01:55:26;;;;;;;;;;;;;;;10.67;100.00;101599.97;5090065;28;19924;-75
2021/11/20 01:58:13;;;;;;;;;;;;;;;10.67;100.00;101602.69;5089923;28;19930;-74
2021/11/20 02:00:42;;;;;;;;;;;;;;;10.67;100.00;101610.84;5073610;28;20409;-74
2021/11/20 02:03:14;;;;;;;;;;;;;;;10.67;100.00;101614.41;5073139;28;19924;-74
2021/11/20 02:05:52;;;;;;;;;;;;;;;10.68;100.00;101613.44;5073128;28;20251;-74
2021/11/20 02:08:31;;;;;;;;;;;;;;;10.67;100.00;101610.84;5055956;28;19960;-74
2021/11/20 02:11:05;;;;;;;;;;;;;;;10.66;100.00;101606.38;5069798;28;19928;-74
2021/11/20 02:13:32;;;;;;;;;;;;;;;10.66;100.00;101617.25;5070847;28;20364;-75
2021/11/20 02:16:03;;;;;;;;;;;;;;;10.65;100.00;101615.50;5069702;28;20344;-75
2021/11/20 02:18:31;;;;;;;;;;;;;;;10.65;100.00;101615.50;5069846;28;19964;-75
2021/11/20 02:21:03;;;;;;;;;;;;;;;10.66;100.00;101617.25;5075987;28;19925;-75
2021/11/20 02:23:40;;;;;;;;;;;;;;;10.65;100.00;101612.78;5095329;28;19931;-74
2021/11/20 02:26:07;;;;;;;;;;;;;;;10.65;100.00;101601.91;5076651;28;19924;-75
2021/11/20 02:28:48;;;;;;;;;;;;;;;10.64;100.00;101609.22;5076736;28;19924;-74
2021/11/20 02:31:40;;;;;;;;;;;;;;;10.63;100.00;101606.59;5076661;28;19928;-74
2021/11/20 02:34:07;;;;;;;;;;;;;;;10.65;100.00;101591.94;5093794;28;19924;-74
2021/11/20 02:36:33;;;;;;;;;;;;;;;10.66;100.00;101585.56;5076301;28;20030;-75
2021/11/20 02:39:01;;;;;;;;;;;;;;;10.67;100.00;101583.69;5076661;28;20404;-75
2021/11/20 02:41:28;;;;;;;;;;;;;;;10.66;100.00;101582.84;5076703;28;19931;-75
2021/11/20 02:43:56;;;;;;;;;;;;;;;10.64;100.00;101576.63;5094436;28;20274;-75
2021/11/20 02:46:25;;;;;;;;;;;;;;;10.62;100.00;101584.03;5075943;28;19928;-75
2021/11/20 02:48:53;;;;;;;;;;;;;;;10.61;100.00;101587.69;5076480;28;19971;-75
2021/11/20 02:51:21;;;;;;;;;;;;;;;10.61;100.00;101592.25;5059820;28;19963;-74
2021/11/20 02:53:48;;;;;;;;;;;;;;;10.61;100.00;101586.81;5094622;28;19924;-75
2021/11/20 02:56:16;;;;;;;;;;;;;;;10.61;100.00;101581.38;5092776;28;19924;-75
2021/11/20 02:58:43;;;;;;;;;;;;;;;10.60;100.00;101574.25;5076559;28;19973;-74
2021/11/20 03:01:11;;;;;;;;;;;;;;;10.60;100.00;101575.09;5093014;28;19928;-75
2021/11/20 03:03:39;;;;;;;;;;;;;;;10.58;100.00;101568.03;5093058;28;19943;-74
2021/11/20 03:06:07;;;;;;;;;;;;;;;10.57;100.00;101569.88;5075904;28;20332;-75
2021/11/20 03:08:35;;;;;;;;;;;;;;;10.58;100.00;101568.03;5093094;28;19924;-74
2021/11/20 03:11:09;;;;;;;;;;;;;;;10.56;100.00;101565.41;5093099;28;19974;-74
2021/11/20 03:13:37;;;;;;;;;;;;;;;10.54;100.00;101557.38;5076033;28;19924;-74
2021/11/20 03:16:08;;;;;;;;;;;;;;;10.53;100.00;101563.78;5059171;28;20368;-75
2021/11/20 03:18:35;;;;;;;;;;;;;;;10.52;100.00;101553.03;5075621;28;20254;-75
2021/11/20 03:21:01;;;;;;;;;;;;;;;10.49;100.00;101562.25;5075902;28;19924;-75
2021/11/20 03:23:31;;;;;;;;;;;;;;;10.50;100.00;101571.25;5075719;28;20405;-76
2021/11/20 03:25:58;;;;;;;;;;;;;;;10.50;100.00;101564.00;5093829;28;19977;-75
2021/11/20 03:28:24;;;;;;;;;;;;;;;10.49;100.00;101555.94;5075947;28;19924;-75
2021/11/20 03:30:53;;;;;;;;;;;;;;;10.48;100.00;101552.34;5074646;28;20367;-76
2021/11/20 03:33:19;;;;;;;;;;;;;;;10.49;100.00;101558.66;5075828;28;19931;-75
2021/11/20 03:35:46;;;;;;;;;;;;;;;10.46;100.00;101562.47;5075350;28;19928;-75
2021/11/20 03:38:24;;;;;;;;;;;;;;;10.45;100.00;101563.44;5075741;28;19948;-75
2021/11/20 03:40:52;;;;;;;;;;;;;;;10.45;100.00;101554.41;5058351;28;20285;-75
2021/11/20 03:43:20;;;;;;;;;;;;;;;10.43;100.00;101553.66;5075712;28;20023;-75
2021/11/20 03:45:51;;;;;;;;;;;;;;;10.36;100.00;101550.47;5092329;28;20014;-75
2021/11/20 03:48:17;;;;;;;;;;;;;;;10.34;100.00;101564.13;5093266;28;20492;-75
2021/11/20 03:50:45;;;;;;;;;;;;;;;10.35;100.00;101567.72;5092272;28;19931;-75
2021/11/20 03:53:12;;;;;;;;;;;;;;;10.36;100.00;101566.78;5093160;28;20377;-75
2021/11/20 03:55:39;;;;;;;;;;;;;;;10.36;100.00;101567.63;5093152;28;19935;-76
2021/11/20 03:58:08;;;;;;;;;;;;;;;10.36;100.00;101556.78;5092670;28;19942;-75
2021/11/20 04:00:37;;;;;;;;;;;;;;;10.37;100.00;101552.22;5075191;28;19964;-75
2021/11/20 04:03:04;;;;;;;;;;;;;;;10.37;100.00;101557.66;5092146;28;19970;-76
2021/11/20 04:05:34;;;;;;;;;;;;;;;10.38;100.00;101564.81;5074708;28;19968;-75
2021/11/20 04:08:01;;;;;;;;;;;;;;;10.35;100.00;101556.88;5075159;28;19935;-75
2021/11/20 04:10:28;;;;;;;;;;;;;;;10.35;100.00;101552.31;5074676;28;19963;-75
2021/11/20 04:12:56;;;;;;;;;;;;;;;10.35;100.00;101556.88;5093152;28;19969;-75
2021/11/20 04:15:26;;;;;;;;;;;;;;;10.35;100.00;101546.03;5074123;28;19924;-75
2021/11/20 04:17:53;;;;;;;;;;;;;;;10.36;100.00;101561.34;5091114;28;20015;-75
2021/11/20 04:20:23;;;;;;;;;;;;;;;10.37;100.00;101563.09;5093041;28;19924;-75
2021/11/20 04:22:51;;;;;;;;;;;;;;;10.33;100.00;101561.53;5074647;28;19935;-75
2021/11/20 04:25:20;;;;;;;;;;;;;;;10.32;100.00;101568.78;5074481;28;19924;-75
2021/11/20 04:27:58;;;;;;;;;;;;;;;10.30;100.00;101564.41;5092516;28;19954;-75
2021/11/20 04:30:47;;;;;;;;;;;;;;;10.31;100.00;101568.88;5074628;28;19928;-75
2021/11/20 04:33:13;;;;;;;;;;;;;;;10.30;100.00;101567.13;5073979;28;20355;-74
2021/11/20 04:35:40;;;;;;;;;;;;;;;10.30;100.00;101559.00;5074316;28;19932;-75
2021/11/20 04:38:07;;;;;;;;;;;;;;;10.29;100.00;101565.38;5074392;28;20057;-75
2021/11/20 04:40:35;;;;;;;;;;;;;;;10.27;100.00;101570.91;5074277;28;19924;-75
2021/11/20 04:43:02;;;;;;;;;;;;;;;10.29;100.00;101565.38;5074399;28;19958;-75
2021/11/20 04:45:31;;;;;;;;;;;;;;;10.28;100.00;101563.66;5073993;28;20310;-74
2021/11/20 04:47:59;;;;;;;;;;;;;;;10.27;100.00;101561.91;5074278;28;20389;-74
2021/11/20 04:50:34;;;;;;;;;;;;;;;10.29;100.00;101565.38;5073740;28;19989;-74
2021/11/20 04:53:01;;;;;;;;;;;;;;;10.26;100.00;101552.91;5074481;28;19958;-75
2021/11/20 04:55:28;;;;;;;;;;;;;;;10.26;100.00;101549.31;5074100;28;19959;-74
2021/11/20 04:57:55;;;;;;;;;;;;;;;10.25;100.00;101556.59;5073725;28;20468;-74
2021/11/20 05:00:23;;;;;;;;;;;;;;;10.26;100.00;101554.75;5074113;28;19935;-75
2021/11/20 05:02:56;;;;;;;;;;;;;;;10.26;100.00;101554.75;5073956;28;19942;-74
2021/11/20 05:05:31;;;;;;;;;;;;;;;10.28;100.00;101555.53;5073780;28;20366;-75
2021/11/20 05:07:58;;;;;;;;;;;;;;;10.28;100.00;101544.66;5073532;28;20364;-74
2021/11/20 05:10:24;;;;;;;;;;;;;;;10.29;100.00;101554.53;5073851;28;20316;-75
2021/11/20 05:12:52;;;;;;;;;;;;;;;10.27;100.00;101551.06;5073879;28;19962;-74
2021/11/20 05:15:28;;;;;;;;;;;;;;;10.28;100.00;101552.81;5073539;28;19940;-74
2021/11/20 05:17:54;;;;;;;;;;;;;;;10.28;100.00;101559.09;5091641;28;19965;-74
2021/11/20 05:20:41;;;;;;;;;;;;;;;10.27;100.00;101551.06;5091528;28;19957;-74
2021/11/20 05:23:08;;;;;;;;;;;;;;;10.26;100.00;101552.03;5073651;28;19972;-75
2021/11/20 05:25:35;;;;;;;;;;;;;;;10.25;100.00;101556.59;5073034;28;19943;-75
2021/11/20 05:28:01;;;;;;;;;;;;;;;10.24;100.00;101560.28;5073697;28;20311;-74
2021/11/20 05:30:30;;;;;;;;;;;;;;;10.22;100.00;101552.25;5073541;28;19925;-74
2021/11/20 05:32:58;;;;;;;;;;;;;;;10.23;100.00;101550.38;5073572;28;19959;-74
2021/11/20 05:35:26;;;;;;;;;;;;;;;10.22;100.00;101554.97;5090249;28;19941;-74
2021/11/20 05:37:54;;;;;;;;;;;;;;;10.20;100.00;101551.47;5073215;28;20291;-75
2021/11/20 05:40:21;;;;;;;;;;;;;;;10.20;100.00;101548.75;5073570;28;19935;-74
2021/11/20 05:42:49;;;;;;;;;;;;;;;10.20;100.00;101562.31;5072780;28;19988;-73
2021/11/20 05:45:16;;;;;;;;;;;;;;;10.18;100.00;101542.56;5089809;28;19999;-74
2021/11/20 05:47:42;;;;;;;;;;;;;;;10.18;100.00;101558.84;5073356;28;20427;-75
2021/11/20 05:50:10;;;;;;;;;;;;;;;10.19;100.00;101560.56;5073328;28;20413;-75
2021/11/20 05:52:36;;;;;;;;;;;;;;;10.16;100.00;101558.06;5072990;28;20331;-75
2021/11/20 05:55:04;;;;;;;;;;;;;;;10.17;100.00;101558.97;5092652;28;19935;-75
2021/11/20 05:57:37;;;;;;;;;;;;;;;10.16;100.00;101551.78;5077167;28;20044;-74
2021/11/20 06:00:10;;;;;;;;;;;;;;;10.14;100.00;101551.88;5077227;28;19953;-75
2021/11/20 06:02:49;;;;;;;;;;;;;;;10.12;100.00;101553.81;5094642;28;19938;-75
2021/11/20 06:05:16;;;;;;;;;;;;;;;10.13;100.00;101551.97;5075543;28;20417;-74
2021/11/20 06:07:43;;;;;;;;;;;;;;;10.14;100.00;101556.44;5077043;28;19951;-74
2021/11/20 06:10:11;;;;;;;;;;;;;;;10.13;100.00;101555.56;5077373;28;19980;-74
2021/11/20 06:12:38;;;;;;;;;;;;;;;10.14;100.00;101556.44;5075983;28;19947;-74
2021/11/20 06:15:06;;;;;;;;;;;;;;;10.13;100.00;101561.00;5076132;28;19935;-74
2021/11/20 06:17:32;;;;;;;;;;;;;;;10.12;100.00;101556.53;5076389;28;19963;-74
2021/11/20 06:20:00;;;;;;;;;;;;;;;10.12;100.00;101563.81;5076364;28;19938;-74
2021/11/20 06:22:30;;;;;;;;;;;;;;;10.09;100.00;101551.31;5076294;28;19942;-74
2021/11/20 06:24:57;;;;;;;;;;;;;;;10.08;100.00;101555.00;5076083;28;19941;-75
2021/11/20 06:27:25;;;;;;;;;;;;;;;10.09;100.00;101569.41;5076355;28;19954;-74
2021/11/20 06:30:00;;;;;;;;;;;;;;;10.06;100.00;101565.06;5074398;28;19941;-75
2021/11/20 06:32:27;;;;;;;;;;;;;;;10.06;100.00;101565.06;5074806;28;20374;-74
2021/11/20 06:35:16;;;;;;;;;;;;;;;10.03;100.00;101557.13;5074098;28;20025;-74
2021/11/20 06:37:46;;;;;;;;;;;;;;;10.04;100.00;101562.47;5079514;28;19965;-74
2021/11/20 06:40:19;;;;;;;;;;;;;;;10.02;100.00;101567.13;5089029;28;19939;-74
2021/11/20 06:42:47;;;;;;;;;;;;;;;10.01;100.00;101564.53;5093091;28;20167;-74
2021/11/20 06:45:16;;;;;;;;;;;;;;;9.97;100.00;101555.72;5076014;28;19986;-73
2021/11/20 06:47:42;;;;;;;;;;;;;;;9.98;100.00;101567.41;5075892;28;20433;-74
2021/11/20 06:50:09;;;;;;;;;;;;;;;10.00;100.00;101565.50;5076044;28;19924;-74
2021/11/20 06:53:07;;;;;;;;;;;;;;;10.02;100.00;101566.25;5056240;28;19935;-74
2021/11/20 06:55:52;;;;;;;;;;;;;;;10.02;100.00;101564.41;5094169;28;20399;-74
2021/11/20 06:59:04;;;;;;;;;;;;;;;10.03;100.00;101576.13;5075956;28;19962;-74
2021/11/20 07:01:34;;;;;;;;;;;;;;;10.02;100.00;101577.97;5076059;28;20403;-74
2021/11/20 07:04:02;;;;;;;;;;;;;;;10.05;100.00;101580.47;5092657;28;20029;-74
2021/11/20 07:06:30;;;;;;;;;;;;;;;10.07;100.00;101577.66;5089686;28;19954;-74
2021/11/20 07:08:56;;;;;;;;;;;;;;;10.11;100.00;101581.06;5094421;28;19935;-74
2021/11/20 07:11:23;;;;;;;;;;;;;;;10.11;100.00;101581.91;5093814;28;20307;-74
2021/11/20 07:13:53;;;;;;;;;;;;;;;10.12;100.00;101582.81;5094032;28;19939;-73
2021/11/20 07:16:22;;;;;;;;;;;;;;;10.12;100.00;101593.66;5075510;28;20446;-74
2021/11/20 07:18:51;;;;;;;;;;;;;;;10.13;100.00;101593.56;5092688;28;19963;-74
2021/11/20 07:21:40;;;;;;;;;;;;;;;10.13;100.00;101584.53;5085539;28;19947;-74
2021/11/20 07:24:11;;;;;;;;;;;;;;;10.14;100.00;101587.16;5075735;28;19946;-75
2021/11/20 07:26:38;;;;;;;;;;;;;;;10.14;100.00;101583.56;5075770;28;19958;-75
2021/11/20 07:29:07;;;;;;;;;;;;;;;10.15;100.00;101585.31;5075429;28;19974;-75
2021/11/20 07:31:48;;;;;;;;;;;;;;;10.16;100.00;101587.91;5092415;28;19945;-75
2021/11/20 07:34:15;;;;;;;;;;;;;;;10.19;100.00;101586.84;5074313;28;19958;-77
2021/11/20 07:36:41;;;;;;;;;;;;;;;10.19;100.00;101581.41;5089018;28;20008;-75
2021/11/20 07:39:10;;;;;;;;;;;;;;;10.18;100.00;101569.69;5092029;28;19954;-75
2021/11/20 07:41:36;;;;;;;;;;;;;;;10.19;100.00;101579.56;5092238;28;20030;-75
2021/11/20 07:44:05;;;;;;;;;;;;;;;10.15;100.00;101579.88;5075323;28;19934;-76
2021/11/20 07:46:34;;;;;;;;;;;;;;;10.11;100.00;101578.34;5074953;28;19957;-77
2021/11/20 07:49:04;;;;;;;;;;;;;;;10.05;100.00;101574.19;5075419;28;19938;-76
2021/11/20 07:51:36;;;;;;;;;;;;;;;10.00;100.00;101581.75;5074922;28;19939;-76
2021/11/20 07:54:05;;;;;;;;;;;;;;;9.96;100.00;101578.38;5091440;28;19942;-75
2021/11/20 07:56:41;;;;;;;;;;;;;;;9.94;100.00;101576.72;5074600;28;19977;-75
2021/11/20 07:59:08;;;;;;;;;;;;;;;9.93;100.00;101566.84;5074676;28;19955;-75
2021/11/20 08:01:36;;;;;;;;;;;;;;;9.91;100.00;101563.38;5092007;28;19934;-75
2021/11/20 08:04:02;;;;;;;;;;;;;;;9.86;100.00;101559.13;5075070;28;20112;-75
2021/11/20 08:06:49;;;;;;;;;;;;;;;9.84;100.00;101555.63;5078432;28;19954;-75
2021/11/20 08:09:34;;;;;;;;;;;;;;;9.83;100.00;101551.16;5075063;28;19941;-75
2021/11/20 08:12:10;;;;;;;;;;;;;;;9.88;100.00;101557.16;5076314;28;19942;-76
2021/11/20 08:14:55;;;;;;;;;;;;;;;9.90;100.00;101546.25;5071608;28;19934;-76
2021/11/20 08:17:43;;;;;;;;;;;;;;;9.94;100.00;101544.19;5071931;28;20449;-76
2021/11/20 08:20:32;;;;;;;;;;;;;;;9.95;100.00;101540.50;5071409;28;20316;-76
2021/11/20 08:23:05;;;;;;;;;;;;;;;9.92;100.00;101538.00;5091987;28;20439;-75
2021/11/20 08:25:32;;;;;;;;;;;;;;;9.96;100.00;101532.25;5091578;28;20009;-76
2021/11/20 08:27:58;;;;;;;;;;;;;;;10.03;100.00;101530.00;5074602;28;19993;-76
2021/11/20 08:30:30;;;;;;;;;;;;;;;10.08;100.00;101527.88;5074565;28;19935;-76
2021/11/20 08:33:00;;;;;;;;;;;;;;;10.18;100.00;101515.44;5074661;28;19934;-76
2021/11/20 08:35:34;;;;;;;;;;;;;;;10.31;100.00;101507.31;5074348;28;19934;-76
2021/11/20 08:38:26;;;;;;;;;;;;;;;10.35;100.00;101499.88;5074324;28;19966;-76
2021/11/20 08:41:00;;;;;;;;;;;;;;;10.42;100.00;101508.47;5056764;28;19934;-76
2021/11/20 08:43:29;;;;;;;;;;;;;;;10.45;100.00;101497.41;5072103;28;20025;-75
2021/11/20 08:46:03;;;;;;;;;;;;;;;10.50;100.00;101490.72;5071543;28;20034;-75
2021/11/20 08:48:30;;;;;;;;;;;;;;;10.57;100.00;101487.56;5071352;28;19946;-75
2021/11/20 08:50:58;;;;;;;;;;;;;;;10.55;100.00;101491.25;5091839;28;19938;-75
2021/11/20 08:53:25;;;;;;;;;;;;;;;10.58;100.00;101490.16;5072990;28;20323;-75
2021/11/20 08:55:52;;;;;;;;;;;;;;;10.62;100.00;101469.09;5074536;28;20045;-76
2021/11/20 08:58:35;;;;;;;;;;;;;;;10.82;100.00;101475.84;5067553;28;20567;-75
2021/11/20 09:01:07;;;;;;;;;;;;;;;10.95;100.00;101473.16;5082948;28;19961;-74
2021/11/20 09:04:00;;;;;;;;;;;;;;;10.88;100.00;101470.84;5090475;28;20384;-75
2021/11/20 09:06:33;;;;;;;;;;;;;;;10.79;100.00;101470.63;5089646;28;19949;-75
2021/11/20 09:09:03;;;;;;;;;;;;;;;10.76;100.00;101470.88;5088296;28;20323;-75
2021/11/20 09:11:32;;;;;;;;;;;;;;;10.66;100.00;101484.19;5079049;28;20436;-75
2021/11/20 09:14:01;;;;;;;;;;;;;;;10.61;100.00;101480.94;5052229;28;19939;-75
2021/11/20 09:16:34;;;;;;;;;;;;;;;10.55;100.00;101485.84;5070631;28;20008;-75
2021/11/20 09:19:02;;;;;;;;;;;;;;;10.59;100.00;101477.47;5073208;28;19961;-75
2021/11/20 09:21:29;;;;;;;;;;;;;;;10.55;100.00;101480.41;5091264;28;19960;-75
2021/11/20 09:24:24;;;;;;;;;;;;;;;10.60;100.00;101477.34;5071211;28;19947;-75
2021/11/20 09:27:11;;;;;;;;;;;;;;;10.61;100.00;101467.34;5070626;28;19954;-75
2021/11/20 09:29:38;;;;;;;;;;;;;;;10.64;100.00;101469.88;5091583;28;19939;-75
2021/11/20 09:32:04;;;;;;;;;;;;;;;10.59;100.00;101463.88;5073550;28;19928;-74
2021/11/20 09:34:32;;;;;;;;;;;;;;;10.63;100.00;101462.69;5073719;28;19941;-75
2021/11/20 09:36:59;;;;;;;;;;;;;;;10.64;100.00;101461.72;5073193;28;20304;-75
2021/11/20 09:39:36;;;;;;;;;;;;;;;10.67;100.00;101467.78;5084936;28;19958;-75
2021/11/20 09:42:27;;;;;;;;;;;;;;;10.68;100.00;101466.81;5074649;28;19994;-75
2021/11/20 09:44:56;;;;;;;;;;;;;;;10.70;100.00;101455.84;5071111;28;19945;-75
2021/11/20 09:47:33;;;;;;;;;;;;;;;10.66;100.00;101460.66;5085041;28;19961;-75
2021/11/20 09:50:07;;;;;;;;;;;;;;;10.70;100.00;101458.56;5071367;28;20029;-75
2021/11/20 09:52:34;;;;;;;;;;;;;;;10.65;100.00;101458.00;5071726;28;19961;-75
2021/11/20 09:55:00;;;;;;;;;;;;;;;10.70;100.00;101453.13;5087883;28;20460;-75
2021/11/20 09:57:28;;;;;;;;;;;;;;;10.75;100.00;101459.13;5088673;28;20090;-75
2021/11/20 10:00:00;;;;;;;;;;;;;;;10.86;100.00;101450.22;5079697;28;20505;-75
2021/11/20 10:02:28;;;;;;;;;;;;;;;10.85;100.00;101443.91;5077474;28;19978;-75
2021/11/20 10:04:56;;;;;;;;;;;;;;;10.91;100.00;101445.31;5070580;28;20022;-75
2021/11/20 10:07:27;;;;;;;;;;;;;;;10.86;100.00;101432.09;5087380;28;20342;-75
2021/11/20 10:09:54;;;;;;;;;;;;;;;10.87;100.00;101439.22;5091523;28;20363;-75
2021/11/20 10:12:26;;;;;;;;;;;;;;;10.87;100.00;101435.66;5071954;28;19934;-75
2021/11/20 10:14:55;;;;;;;;;;;;;;;10.92;100.00;101440.78;5091028;28;19973;-75
2021/11/20 10:17:31;;;;;;;;;;;;;;;10.93;100.00;101437.06;5090328;28;20053;-74
2021/11/20 10:20:00;;;;;;;;;;;;;;;10.94;100.00;101430.66;5088793;28;20514;-74
2021/11/20 10:22:31;;;;;;;;;;;;;;;10.90;100.00;101419.13;5090644;28;20029;-74
2021/11/20 10:25:15;;;;;;;;;;;;;;;10.84;100.00;101425.03;5072118;28;19981;-74
2021/11/20 10:27:52;;;;;;;;;;;;;;;10.79;100.00;101427.19;5090445;28;20037;-74
2021/11/20 10:30:27;;;;;;;;;;;;;;;10.84;100.00;101422.31;5090749;28;19960;-75
2021/11/20 10:32:56;;;;;;;;;;;;;;;10.83;100.00;101423.28;5090894;28;19980;-74
2021/11/20 10:35:26;;;;;;;;;;;;;;;10.81;100.00;101415.25;5090264;28;20433;-74
2021/11/20 10:37:56;;;;;;;;;;;;;;;10.80;100.00;101408.06;5090384;28;19997;-74
2021/11/20 10:40:28;;;;;;;;;;;;;;;10.77;100.00;101413.72;5091830;28;20045;-75
2021/11/20 10:42:56;;;;;;;;;;;;;;;10.79;100.00;101406.31;5075168;28;20030;-74
2021/11/20 10:45:31;;;;;;;;;;;;;;;10.79;100.00;101400.03;5094441;28;20022;-75
2021/11/20 10:47:59;;;;;;;;;;;;;;;10.81;100.00;101398.06;5094331;28;20449;-75
2021/11/20 10:50:31;;;;;;;;;;;;;;;10.84;100.00;101392.44;5094392;28;20030;-75
2021/11/20 10:53:20;;;;;;;;;;;;;;;10.87;100.00;101393.06;5094526;28;19942;-75
2021/11/20 10:55:50;;;;;;;;;;;;;;;10.94;100.00;101389.91;5094447;28;19935;-75
2021/11/20 10:58:28;;;;;;;;;;;;;;;10.93;100.00;101382.72;5094370;28;19934;-75
2021/11/20 11:01:24;;;;;;;;;;;;;;;10.92;100.00;101371.00;5094080;28;19990;-76
2021/11/20 11:03:55;;;;;;;;;;;;;;;10.93;100.00;101371.88;5094577;28;19941;-76
2021/11/20 11:06:41;;;;;;;;;;;;;;;10.94;100.00;101368.19;5093516;28;20061;-75
2021/11/20 11:09:28;;;;;;;;;;;;;;;10.92;100.00;101365.56;5094413;28;19934;-75
2021/11/20 11:11:59;;;;;;;;;;;;;;;10.95;100.00;101361.78;5085279;28;20001;-75
2021/11/20 11:14:39;;;;;;;;;;;;;;;10.95;100.00;101361.78;5094156;28;19938;-75
2021/11/20 11:17:10;;;;;;;;;;;;;;;10.99;100.00;101357.84;5093580;28;20399;-75
2021/11/20 11:19:40;;;;;;;;;;;;;;;11.00;100.00;101349.59;5093864;28;19986;-75
2021/11/20 11:22:11;;;;;;;;;;;;;;;11.07;100.00;101344.56;5094051;28;19938;-76
2021/11/20 11:24:52;;;;;;;;;;;;;;;11.10;100.00;101352.47;5093378;28;19970;-76
2021/11/20 11:27:24;;;;;;;;;;;;;;;11.12;100.00;101339.66;5094245;28;20385;-75
2021/11/20 11:30:09;;;;;;;;;;;;;;;11.16;100.00;101338.47;5093669;28;20045;-75
2021/11/20 11:32:37;;;;;;;;;;;;;;;11.17;100.00;101332.03;5072581;28;20408;-76
2021/11/20 11:35:07;;;;;;;;;;;;;;;11.17;100.00;101320.28;5072264;28;19942;-75
2021/11/20 11:37:40;;;;;;;;;;;;;;;11.22;100.00;101323.53;5092054;28;20020;-75
2021/11/20 11:40:13;;;;;;;;;;;;;;;11.18;100.00;101319.31;5093022;28;20012;-76
2021/11/20 11:42:46;;;;;;;;;;;;;;;11.22;100.00;101316.28;5093300;28;19943;-76
2021/11/20 11:45:29;;;;;;;;;;;;;;;11.30;100.00;101312.09;5093665;28;20029;-76
2021/11/20 11:47:58;;;;;;;;;;;;;;;11.27;100.00;101317.78;5093488;28;19957;-76
2021/11/20 11:50:30;;;;;;;;;;;;;;;11.24;100.00;101318.88;5093661;28;19966;-76
2021/11/20 11:52:58;;;;;;;;;;;;;;;11.22;100.00;101299.97;5092841;28;20431;-75
2021/11/20 11:55:52;;;;;;;;;;;;;;;11.25;100.00;101306.13;5092718;28;19943;-76
2021/11/20 11:58:34;;;;;;;;;;;;;;;11.25;100.00;101301.59;5093687;28;19981;-75
2021/11/20 12:01:03;;;;;;;;;;;;;;;11.22;100.00;101280.94;5092998;28;19955;-76
2021/11/20 12:03:31;;;;;;;;;;;;;;;11.18;100.00;101287.59;5093211;28;19980;-76
2021/11/20 12:06:06;;;;;;;;;;;;;;;11.20;100.00;101280.19;5092778;28;19982;-75
2021/11/20 12:08:36;;;;;;;;;;;;;;;11.18;100.00;101282.16;5092923;28;20036;-74
2021/11/20 12:11:04;;;;;;;;;;;;;;;11.22;100.00;101282.78;5092910;28;20330;-74
2021/11/20 12:13:37;;;;;;;;;;;;;;;11.16;100.00;101275.97;5092381;28;19946;-75
2021/11/20 12:16:24;;;;;;;;;;;;;;;11.15;100.00;101271.50;5092657;28;20438;-75
2021/11/20 12:18:54;;;;;;;;;;;;;;;11.05;100.00;101265.91;5057892;28;20037;-75
2021/11/20 12:21:25;;;;;;;;;;;;;;;11.02;100.00;101251.66;5087810;28;19955;-75
2021/11/20 12:23:54;;;;;;;;;;;;;;;11.00;100.00;101249.06;5092159;28;20029;-75
2021/11/20 12:26:33;;;;;;;;;;;;;;;10.99;100.00;101246.47;5092436;28;19951;-75
2021/11/20 12:29:11;;;;;;;;;;;;;;;10.99;100.00;101241.03;5091914;28;19934;-76
2021/11/20 12:31:49;;;;;;;;;;;;;;;10.93;100.00;101236.06;5092650;28;19942;-76
2021/11/20 12:34:31;;;;;;;;;;;;;;;10.92;100.00;101226.19;5092620;28;20134;-76
2021/11/20 12:37:09;;;;;;;;;;;;;;;10.91;100.00;101225.31;5092682;28;20040;-75
2021/11/20 12:39:41;;;;;;;;;;;;;;;10.94;100.00;101221.50;5092379;28;19985;-74
2021/11/20 12:42:16;;;;;;;;;;;;;;;10.97;100.00;101213.09;5092246;28;19996;-75
2021/11/20 12:45:00;;;;;;;;;;;;;;;10.92;100.00;101212.63;5092384;28;19935;-75
2021/11/20 12:47:48;;;;;;;;;;;;;;;10.92;100.00;101202.59;5041343;28;20061;-75
2021/11/20 12:50:24;;;;;;;;;;;;;;;10.92;100.00;101193.59;5092155;28;19953;-74